| Fund (series)↕ | Registrant↕ | Ticker↕ | Latest report↕ | Net assets▲ |
|---|---|---|---|---|
| Technology Fund S000003722 | Rydex Variable Trust CIK 0001064046 | — | 2026-03-31 | $22.27M |
| First Trust Small Cap BuyWrite Income ETF S000090516 |
| FTKI |
| 2026-03-31 |
| $22.29M |
| Founder-Led ETF S000096625 | Corgi ETF Trust I CIK 0002078265 | — | 2026-03-31 | $22.33M |
| First Trust WCM Developing World Equity ETF S000086663 | First Trust Exchange-Traded Fund CIK 0001329377 | WCME | 2026-03-31 | $22.36M |
| Sterling Capital South Carolina Intermediate S000003545 | Sterling Capital Funds CIK 0000889284 | — | 2026-03-31 | $22.40M |
| TFA Tactical Income Fund S000071480 | Tactical Investment Series Trust CIK 0001843263 | — | 2026-03-31 | $22.42M |
| NEOS Boosted S&P 500(R) High Income ETF S000096991 | NEOS ETF Trust CIK 0001848758 | XSPI | 2026-03-31 | $22.43M |
| NVIT J.P. Morgan US Technology Leaders Fund S000075640 | Nationwide Variable Insurance Trust CIK 0000353905 | — | 2026-03-31 | $22.51M |
| Stratified LargeCap Hedged ETF S000084822 | Exchange Listed Funds Trust CIK 0001547950 | SHUS | 2026-03-31 | $22.54M |
| SA Worldwide Moderate Growth Fund S000047149 | SA FUNDS INVESTMENT TRUST CIK 0001075065 | — | 2026-03-31 | $22.62M |
| Small Company Value Portfolio S000001048 | Wilshire Mutual Funds Inc CIK 0000890453 | — | 2026-03-31 | $22.65M |
| Horizon Kinetics Japan Owner Operator ETF S000092105 | Listed Funds Trust CIK 0001683471 | JAPN | 2026-03-31 | $22.69M |
| Winton Managed Futures Trend Fund S000034148 | Northern Lights Fund Trust CIK 0001314414 | — | 2026-03-31 | $22.76M |
| Lazard Opportunistic Strategies Portfolio S000020883 | LAZARD FUNDS INC CIK 0000874964 | — | 2026-03-31 | $22.80M |
| Baron India Fund S000071635 | BARON SELECT FUNDS CIK 0001217673 | — | 2026-03-31 | $22.86M |
| SPIRIT OF AMERICA MUNICIPAL TAX FREE BOND FUND S000021071 | Spirit of America Investment Fund, Inc. CIK 0001039667 | — | 2026-03-31 | $22.87M |
| S&P 500 Pure Growth Fund S000003739 | Rydex Variable Trust CIK 0001064046 | — | 2026-03-31 | $22.94M |
| Schwab Ariel Opportunities ETF S000072244 | SCHWAB STRATEGIC TRUST CIK 0001454889 | — | 2026-03-31 | $22.99M |
| Keeley Gabelli SMID Cap Value Fund S000018569 | Keeley Funds, Inc. CIK 0001324203 | — | 2026-03-31 | $23.00M |
| MIDAS SPECIAL OPPORTUNITIES S000038959 | Midas Series Trust CIK 0000770200 | — | 2026-03-31 | $23.08M |
| Gotham Enhanced S&P 500 Index Fund S000056197 | FundVantage Trust CIK 0001388485 | — | 2026-03-31 | $23.08M |
| WBI BullBear Value 3000 ETF S000044181 | Absolute Shares Trust CIK 0001591939 | WBIF | 2026-03-31 | $23.08M |
| VANGUARD WELLINGTON U.S. GROWTH ACTIVE ETF S000096460 | VANGUARD WELLESLEY INCOME FUND CIK 0000105544 | VUSG | 2026-03-31 | $23.12M |
| Templeton Sustainable Emerging Markets Bond Fund S000040303 | Templeton Income Trust CIK 0000795402 | — | 2026-03-31 | $23.12M |
| Global Stars Portfolio S000041864 | MORGAN STANLEY INSTITUTIONAL FUND INC CIK 0000836487 | — | 2026-03-31 | $23.19M |
| Shelton Emerging Markets Fund S000067906 | SCM Trust CIK 0000836267 | — | 2026-03-31 | $23.29M |
| Empiric Fund S000040322 | MUTUAL FUND SERIES TRUST CIK 0001355064 | — | 2026-03-31 | $23.42M |
| Principal Real Estate Active Opportunities ETF S000076068 | Principal Exchange-Traded Funds CIK 0001572661 | BYRE | 2026-03-31 | $23.51M |
| T. Rowe Price Retirement Income 2025 Fund S000083543 | T. ROWE PRICE RETIREMENT FUNDS, INC. CIK 0001177017 | — | 2026-03-31 | $23.78M |
| Parametric Equity Plus ETF S000088098 | Morgan Stanley ETF Trust CIK 0001676326 | PEPS | 2026-03-31 | $23.80M |
| American Funds IS 2025 Target Date Fund S000067192 | AMERICAN FUNDS INSURANCE SERIES CIK 0000729528 | — | 2026-03-31 | $23.88M |
| TCW METWEST Sustainable Securitized Fund S000072616 | TCW Metropolitan West Funds CIK 0001028621 | — | 2026-03-31 | $23.90M |
| ICON UTILITIES AND INCOME FUND S000067905 | SCM Trust CIK 0000836267 | — | 2026-03-31 | $23.90M |
| PRAXIS GENESIS CONSERVATIVE PORTFOLIO S000026797 | Praxis Mutual Funds CIK 0000912900 | — | 2026-03-31 | $23.90M |
| VANGUARD WELLINGTON DIVIDEND GROWTH ACTIVE ETF S000096461 | VANGUARD WELLESLEY INCOME FUND CIK 0000105544 | VDIG | 2026-03-31 | $23.93M |
| Hood River Emerging Markets Fund S000097192 | Manager Directed Portfolios CIK 0001359057 | — | 2026-03-31 | $23.95M |
| Lazard Listed Infrastructure ETF S000094312 | Lazard Active ETF Trust CIK 0002051630 | GLIX | 2026-03-31 | $23.98M |
| Amplify Travel Tech ETF S000082277 | Amplify ETF Trust CIK 0001633061 | — | 2026-03-31 | $23.99M |
| The Merger Fund VL S000005160 | Merger Fund VL CIK 0001208133 | — | 2026-03-31 | $24.00M |
| iShares S&P 500 3% Capped ETF S000091281 | iShares Trust CIK 0001100663 | TOPC | 2026-03-31 | $24.02M |
| JPMorgan Active Small Cap Value ETF S000079652 | J.P. Morgan Exchange-Traded Fund Trust CIK 0001485894 | JPSV | 2026-03-31 | $24.13M |
| NAA SMALL GROWTH SERIES S000087638 | New Age Alpha Variable Funds Trust CIK 0002013968 | — | 2026-03-31 | $24.14M |
| Guggenheim Managed Futures Strategy Fund S000014094 | Rydex Series Funds CIK 0000899148 | — | 2026-03-31 | $24.15M |
| T-Rex 2X Inverse NVIDIA Daily Target ETF S000080897 | ETF Opportunities Trust CIK 0001771146 | NVDQ | 2026-03-31 | $24.19M |
| Upright Growth Fund S000004906 | UPRIGHT INVESTMENTS TRUST CIK 0001058587 | — | 2026-03-31 | $24.25M |
| Royce Quant Small-Cap Quality Value ETF S000058077 | Legg Mason ETF Investment Trust CIK 0001645194 | SQLV | 2026-03-31 | $24.26M |
| UBS Engage For Impact Fund S000063381 | UBS FUNDS CIK 0000886244 | — | 2026-03-31 | $24.26M |
| VanEck Brazil Small-Cap ETF S000025533 | VanEck ETF Trust CIK 0001137360 | BRF | 2026-03-31 | $24.56M |
| T-Rex 2X Long CRCL Daily Target ETF S000087460 | ETF Opportunities Trust CIK 0001771146 | CCUP | 2026-03-31 | $24.73M |
| Rational Premium Income Fund S000017165 | Mutual Fund & Variable Insurance Trust CIK 0000810695 | — | 2026-03-31 | $24.73M |